This is the latest recevied weather packets stored in our database for station/object K6HFP. If no packets are shown the sender has not sent any weather packets the latest 1 day(s).
| Time | Temp. | Humidity | Pressure | Rain* | Wind** | Luminosity | Snow |
|---|---|---|---|---|---|---|---|
| 1778008982 | 14.44° C | 80% | 1014.9 hPa | 0 mm | 0.45 m/s, 146° | 401 W/m² | - |
| 1778008680 | 13.89° C | 79% | 1014.9 hPa | 0 mm | 0.45 m/s, 168° | 335 W/m² | - |
| 1778008378 | 13.89° C | 80% | 1014.3 hPa | 0 mm | 1.34 m/s, 157° | 263 W/m² | - |
| 1778008074 | 13.89° C | 80% | 1014.6 hPa | 0 mm | 0.45 m/s, 224° | 277 W/m² | - |
| 1778007769 | 14.44° C | 79% | 1014.6 hPa | 0 mm | 1.34 m/s, 341° | 284 W/m² | - |
| 1778007466 | 13.89° C | 79% | 1014.6 hPa | 0 mm | 0.89 m/s, 174° | 362 W/m² | - |
| 1778007162 | 14.44° C | 80% | 1014.6 hPa | 0 mm | 0.89 m/s, 197° | 356 W/m² | - |
| 1778006858 | 14.44° C | 78% | 1014.4 hPa | 0 mm | 1.34 m/s, 322° | 410 W/m² | - |
| 1778006556 | 13.89° C | 80% | 1014.6 hPa | 0 mm | 1.34 m/s, 256° | 574 W/m² | - |
| 1778006252 | 13.89° C | 82% | 1014.6 hPa | 0 mm | 0.89 m/s, 186° | 518 W/m² | - |
| 1778005951 | 13.89° C | 84% | 1014.2 hPa | 0 mm | 0.45 m/s, 144° | 619 W/m² | - |
| 1778005646 | 13.33° C | 85% | 1014.4 hPa | 0 mm | 1.34 m/s, 290° | 498 W/m² | - |
| 1778005343 | 13.33° C | 84% | 1014.6 hPa | 0 mm | 0.89 m/s, 250° | 508 W/m² | - |
| 1778005039 | 13.33° C | 84% | 1014.6 hPa | 0 mm | 0.89 m/s, 223° | 402 W/m² | - |
| 1778004737 | 12.78° C | 86% | 1014.7 hPa | 0 mm | 0 m/s | 379 W/m² | - |
| 1778004433 | 12.78° C | 86% | 1014.4 hPa | 0 mm | 0.89 m/s, 258° | 321 W/m² | - |
| 1778004130 | 12.78° C | 87% | 1014.7 hPa | 0 mm | 0.89 m/s, 249° | 342 W/m² | - |
| 1778003826 | 12.78° C | 87% | 1014.8 hPa | 0 mm | 1.34 m/s, 272° | 296 W/m² | - |
| 1778003523 | 12.78° C | 87% | 1014.8 hPa | 0 mm | 0.45 m/s, 4° | 301 W/m² | - |
| 1778003219 | 12.78° C | 87% | 1014.4 hPa | 0 mm | 0.45 m/s, 217° | 286 W/m² | - |
| 1778002915 | 12.78° C | 88% | 1014.7 hPa | 0 mm | 0.45 m/s, 303° | 233 W/m² | - |
| 1778002612 | 12.22° C | 88% | 1014.6 hPa | 0 mm | 0 m/s | 280 W/m² | - |
| 1778002309 | 12.22° C | 89% | 1014.4 hPa | 0 mm | 0.45 m/s, 167° | 264 W/m² | - |
| 1778002007 | 12.22° C | 89% | 1014.4 hPa | 0 mm | 1.34 m/s, 173° | 264 W/m² | - |
| 1778001703 | 12.22° C | 92% | 1014.3 hPa | 0 mm | 0.89 m/s, 164° | 255 W/m² | - |
* Rain latest hour (hover to see other rain measurements)
** Current wind speed in m/s (hover to see current wind gust speed)